• Join FlightAware (Why Join?)
  • Login
  • US Flag 
11:50PM EDT


 

Airport Tracker/Info


-or-


 

Live Flight TrackerFlight Track Log ✈ UAL5848 ✈ 21-Oct-2013 ✈ KORD - CYOW

Flight Track Log - Related Links

Times and Time Zones

All times are in EDT time to prevent confusion due to time zone crossing. See the UAL5848 flight status page for this flight to view local times or setup timezone preferences in your user account.

Time Position Orientation Groundspeed Altitude Reporting Facility
EDT Latitude Longitude Course Direction KTS MPH feet Rate Location/Type
08:00AM 42.0167 -87.9333 85° East 182 209 2,600  Level Chicago TRACON
08:01AM 42.0667 -87.8833 37° Northeast 256 295 4,300 1,440 Climbing Chicago TRACON
08:03AM 42.1922 -87.2877 90° East  Level Estimated
08:03AM 42.1431 -87.7939 41° Northeast 270 311 6,100  Level Chicago Center
08:04AM 42.2148 -87.1199 80° East  Level FlightAware Approximate
08:04AM 42.1856 -87.6925 60° Northeast 301 346 8,400  Level Chicago Center
08:05AM 42.2646 -86.9720 85° East  Level Estimated
08:05AM 42.2047 -87.5756 77° East 316 364 10,700  Level Chicago Center
08:06AM 42.2231 -87.4519 79° East 332 382 12,400 1,200 Climbing Chicago Center
08:07AM 42.2431 -87.3158 79° East 363 418 13,200 960 Climbing Chicago Center
08:08AM 42.2644 -87.1683 79° East 395 455 14,400 1,260 Climbing Chicago Center
08:09AM 42.2811 -86.9844 83° East 413 475 15,900 1,260 Climbing Chicago Center
08:10AM 42.2878 -86.8258 87° East 423 487 17,100 1,140 Climbing Chicago Center
08:11AM 42.2939 -86.6742 87° East 429 494 18,300 1,200 Climbing Chicago Center
08:12AM 42.3014 -86.4894 87° East 438 504 19,700 1,200 Climbing Chicago Center
08:13AM 42.3075 -86.3228 87° East 443 510 20,900 1,020 Climbing Chicago Center
08:14AM 42.3125 -86.1561 88° East 446 513 21,900 480 Climbing Chicago Center
08:15AM 42.3147 -85.9828 89° East 458 527 22,000 420 Climbing Chicago Center
08:16AM 42.3117 -85.8011 91° East 477 549 22,800 960 Climbing Chicago Center
08:17AM 42.3089 -85.5844 91° East 484 557 24,000 1,020 Climbing Chicago Center
08:18AM 42.3061 -85.4047 91° East 483 556 25,000 900 Climbing Chicago Center
08:19AM 42.3036 -85.2247 91° East 483 556 25,900 900 Climbing Chicago Center
08:20AM 42.3000 -85.0450 91° East 482 555 26,900 900 Climbing Chicago Center
08:21AM 42.2967 -84.8636 91° East 484 557 27,800 900 Climbing Chicago Center
08:22AM 42.2919 -84.6836 92° East 483 556 28,800 1,020 Climbing Chicago Center
08:23AM 42.2892 -84.4667 91° East 486 559 30,000 900 Climbing Chicago Center
08:24AM 42.2986 -84.3725 82° East 496 571 30,400 900 Climbing Cleveland Center
08:25AM 42.3311 -84.1503 79° East 502 578 31,600 1,020 Climbing Cleveland Center
08:26AM 42.3564 -83.9639 80° East 505 581 32,600 960 Climbing Cleveland Center
08:27AM 42.3828 -83.7758 79° East 507 583 33,600 960 Climbing Cleveland Center
08:28AM 42.4092 -83.5847 79° East 509 586 34,600 660 Climbing Cleveland Center
08:29AM 42.4583 -83.3989 70° East 513 590 35,000 180 Climbing Cleveland Center
08:30AM 42.5100 -83.2083 70° East 529 609 35,000  Level Cleveland Center
08:31AM 42.5617 -83.0144 70° East 542 624 35,000  Level Cleveland Center
08:32AM 42.6097 -82.8289 71° East 529 609 35,000  Level Cleveland Center
08:33AM 42.6669 -82.6089 70° East 517 595 35,000  Level Cleveland Center
08:34AM 42.7142 -82.4289 70° East 511 588 35,000  Level Cleveland Center
08:35AM 42.7617 -82.2458 70° East 512 589 35,000  Level Cleveland Center
08:36AM 42.8094 -82.0556 71° East 528 608 35,000  Level Cleveland Center
08:38AM 42.9000 -81.6333 74° East 540 621 35,000  Level Toronto Center
08:39AM 42.9500 -81.4333 71° East 540 621 35,000  Level Toronto Center
08:40AM 43.0000 -81.2333 71° East 550 633 35,000  Level Toronto Center
08:41AM 43.0500 -81.0500 69° East 550 633 35,000  Level Toronto Center
08:42AM 43.1333 -80.8667 58° Northeast 540 621 35,000  Level Toronto Center
08:43AM 43.2167 -80.6833 58° Northeast 540 621 35,000  Level Toronto Center
08:44AM 43.2833 -80.5333 59° Northeast 530 610 35,000  Level Toronto Center
08:46AM 43.4333 -80.1667 61° Northeast 520 598 35,000  Level Toronto Center
08:47AM 43.5000 -79.9833 63° Northeast 520 598 35,000  Level Toronto Center
08:48AM 43.5667 -79.8167 61° Northeast 520 598 35,000  Level Toronto Center
08:49AM 43.6333 -79.6333 63° Northeast 520 598 35,000  Level Toronto Center
08:50AM 43.7000 -79.4500 63° Northeast 520 598 35,000  Level Toronto Center
08:51AM 43.7500 -79.2667 69° East 530 610 35,000  Level Toronto Center
08:52AM 43.8000 -79.0833 69° East 530 610 35,000  Level Toronto Center
08:53AM 43.8667 -78.8667 67° East 530 610 35,000  Level Toronto Center
08:54AM 43.9167 -78.6833 69° East 530 610 35,000  Level Toronto Center
08:55AM 43.9833 -78.5000 63° Northeast 530 610 35,000  Level Toronto Center
08:56AM 44.0167 -78.3167 76° East 530 610 35,000  Level Toronto Center
08:57AM 44.0833 -78.1500 61° Northeast 530 610 35,000 -120 Level Toronto Center
08:58AM 44.1667 -77.9667 58° Northeast 530 610 34,800 -960 Descending Toronto Center
08:59AM 44.2333 -77.8000 61° Northeast 520 598 33,100 -1,980 Descending Toronto Center
09:00AM 44.3333 -77.6333 50° Northeast 510 587 30,900 -2,400 Descending Toronto Center
09:01AM 44.4000 -77.4667 61° Northeast 510 587 28,400 -2,640 Descending Toronto Center
09:02AM 44.4500 -77.3667 55° Northeast 500 575 26,600 -2,280 Descending Montreal Center
09:03AM 44.5167 -77.2167 58° Northeast 490 564 24,700 -1,800 Descending Montreal Center
09:04AM 44.5833 -77.0667 58° Northeast 470 541 23,000 -2,160 Descending Montreal Center
09:05AM 44.6667 -76.9167 52° Northeast 460 529 20,400 -2,940 Descending Montreal Center
09:06AM 44.7333 -76.7667 58° Northeast 440 506 17,200 -3,120 Descending Montreal Center
09:07AM 44.8000 -76.6500 51° Northeast 410 472 14,200 -2,940 Descending Montreal Center
09:08AM 44.8500 -76.5333 59° Northeast 370 426 11,400 -2,460 Descending Montreal Center
09:09AM 44.9000 -76.4333 55° Northeast 340 391 9,300 -1,740 Descending Montreal Center
09:10AM 44.9667 -76.3167 51° Northeast 310 357 8,000 -1,320 Descending Montreal Center
09:11AM 45.0000 -76.2333 60° Northeast 300 345 6,700 -1,380 Descending Montreal Center
09:12AM 45.0667 -76.1333 47° Northeast 290 334 5,300 -1,260 Descending Montreal Center
09:13AM 45.1000 -76.0667 55° Northeast 270 311 4,200 -1,080 Descending Montreal Center
09:14AM 45.1500 -76.0000 43° Northeast 250 288 3,200 -600 Descending Montreal Center
09:15AM 45.1833 -75.9000 65° Northeast 230 265 3,000 -120 Descending Montreal Center
09:16AM 45.2167 -75.8333 55° Northeast 210 242 3,000 -540 Level Montreal Center
09:17AM 45.2500 -75.7500 60° Northeast 200 230 2,000 -960 Descending Montreal Center
09:18AM 45.2833 -75.7000 47° Northeast 160 184 1,100 -840 Descending Montreal Center
09:19AM 45.3000 -75.6667 55° Northeast 140 161 400 -720 Descending Montreal Center